sensor_id;sensor_type;location;lat;lon;timestamp;P1;durP1;ratioP1;P2;durP2;ratioP2
7905;SDS011;13291;40.472;-3.878;2023-04-30T00:01:24;1.53;;;1.10;;
7905;SDS011;13291;40.472;-3.878;2023-04-30T00:03:53;3.90;;;1.10;;
7905;SDS011;13291;40.472;-3.878;2023-04-30T00:06:20;2.00;;;0.90;;
7905;SDS011;13291;40.472;-3.878;2023-04-30T00:08:46;2.00;;;1.17;;
7905;SDS011;13291;40.472;-3.878;2023-04-30T00:11:13;2.40;;;1.40;;
7905;SDS011;13291;40.472;-3.878;2023-04-30T00:13:40;1.50;;;1.10;;
7905;SDS011;13291;40.472;-3.878;2023-04-30T00:16:08;4.20;;;1.10;;
7905;SDS011;13291;40.472;-3.878;2023-04-30T00:18:35;1.50;;;1.10;;
7905;SDS011;13291;40.472;-3.878;2023-04-30T00:21:04;1.70;;;1.10;;
7905;SDS011;13291;40.472;-3.878;2023-04-30T00:23:31;3.27;;;1.17;;
7905;SDS011;13291;40.472;-3.878;2023-04-30T00:25:58;1.40;;;1.00;;
7905;SDS011;13291;40.472;-3.878;2023-04-30T00:28:25;1.07;;;0.70;;
7905;SDS011;13291;40.472;-3.878;2023-04-30T00:30:52;1.50;;;1.13;;
7905;SDS011;13291;40.472;-3.878;2023-04-30T00:33:19;2.53;;;1.30;;
7905;SDS011;13291;40.472;-3.878;2023-04-30T00:35:45;5.20;;;1.50;;
7905;SDS011;13291;40.472;-3.878;2023-04-30T00:38:14;1.90;;;1.40;;
7905;SDS011;13291;40.472;-3.878;2023-04-30T00:40:41;2.23;;;1.10;;
7905;SDS011;13291;40.472;-3.878;2023-04-30T00:43:09;4.60;;;1.30;;
7905;SDS011;13291;40.472;-3.878;2023-04-30T00:45:36;3.47;;;1.33;;
7905;SDS011;13291;40.472;-3.878;2023-04-30T00:48:03;2.20;;;1.30;;
7905;SDS011;13291;40.472;-3.878;2023-04-30T00:50:30;1.57;;;1.20;;
7905;SDS011;13291;40.472;-3.878;2023-04-30T00:52:57;1.27;;;1.10;;
7905;SDS011;13291;40.472;-3.878;2023-04-30T00:55:27;2.60;;;1.30;;
7905;SDS011;13291;40.472;-3.878;2023-04-30T00:57:54;1.20;;;1.00;;
7905;SDS011;13291;40.472;-3.878;2023-04-30T01:00:21;1.40;;;1.07;;
7905;SDS011;13291;40.472;-3.878;2023-04-30T01:02:48;1.73;;;1.20;;
7905;SDS011;13291;40.472;-3.878;2023-04-30T01:05:15;3.03;;;1.30;;
7905;SDS011;13291;40.472;-3.878;2023-04-30T01:07:42;2.70;;;1.20;;
7905;SDS011;13291;40.472;-3.878;2023-04-30T01:10:10;2.77;;;1.03;;
7905;SDS011;13291;40.472;-3.878;2023-04-30T01:12:42;1.63;;;1.00;;
7905;SDS011;13291;40.472;-3.878;2023-04-30T01:15:22;1.67;;;0.70;;
7905;SDS011;13291;40.472;-3.878;2023-04-30T01:17:55;1.80;;;1.10;;
7905;SDS011;13291;40.472;-3.878;2023-04-30T01:20:26;1.23;;;0.80;;
7905;SDS011;13291;40.472;-3.878;2023-04-30T01:22:56;1.40;;;1.00;;
7905;SDS011;13291;40.472;-3.878;2023-04-30T01:25:50;2.70;;;1.10;;
7905;SDS011;13291;40.472;-3.878;2023-04-30T01:28:28;0.90;;;0.80;;
7905;SDS011;13291;40.472;-3.878;2023-04-30T01:30:55;1.33;;;0.87;;
7905;SDS011;13291;40.472;-3.878;2023-04-30T01:33:22;2.80;;;1.10;;
7905;SDS011;13291;40.472;-3.878;2023-04-30T01:36:06;1.77;;;0.70;;
7905;SDS011;13291;40.472;-3.878;2023-04-30T01:38:48;1.33;;;0.80;;
7905;SDS011;13291;40.472;-3.878;2023-04-30T01:41:28;3.87;;;1.10;;
7905;SDS011;13291;40.472;-3.878;2023-04-30T01:44:04;0.90;;;0.80;;
7905;SDS011;13291;40.472;-3.878;2023-04-30T01:46:38;1.33;;;1.13;;
7905;SDS011;13291;40.472;-3.878;2023-04-30T01:49:07;1.60;;;1.07;;
7905;SDS011;13291;40.472;-3.878;2023-04-30T01:51:54;1.50;;;0.90;;
7905;SDS011;13291;40.472;-3.878;2023-04-30T01:54:31;1.30;;;1.00;;
7905;SDS011;13291;40.472;-3.878;2023-04-30T01:57:04;3.13;;;1.17;;
7905;SDS011;13291;40.472;-3.878;2023-04-30T01:59:34;1.93;;;0.90;;
7905;SDS011;13291;40.472;-3.878;2023-04-30T02:02:04;2.23;;;1.17;;
7905;SDS011;13291;40.472;-3.878;2023-04-30T02:04:32;1.40;;;1.00;;
7905;SDS011;13291;40.472;-3.878;2023-04-30T02:06:59;1.77;;;1.00;;
7905;SDS011;13291;40.472;-3.878;2023-04-30T02:09:26;1.80;;;1.10;;
7905;SDS011;13291;40.472;-3.878;2023-04-30T02:11:54;3.43;;;1.20;;
7905;SDS011;13291;40.472;-3.878;2023-04-30T02:14:22;3.30;;;1.10;;
7905;SDS011;13291;40.472;-3.878;2023-04-30T02:16:50;2.30;;;0.97;;
7905;SDS011;13291;40.472;-3.878;2023-04-30T02:19:17;1.50;;;1.00;;
7905;SDS011;13291;40.472;-3.878;2023-04-30T02:21:44;3.77;;;1.20;;
7905;SDS011;13291;40.472;-3.878;2023-04-30T02:24:11;2.23;;;1.10;;
7905;SDS011;13291;40.472;-3.878;2023-04-30T02:26:38;1.33;;;0.87;;
7905;SDS011;13291;40.472;-3.878;2023-04-30T02:29:05;1.60;;;1.20;;
7905;SDS011;13291;40.472;-3.878;2023-04-30T02:31:31;3.27;;;0.97;;
7905;SDS011;13291;40.472;-3.878;2023-04-30T02:34:00;1.33;;;1.00;;
7905;SDS011;13291;40.472;-3.878;2023-04-30T02:36:27;1.43;;;0.90;;
7905;SDS011;13291;40.472;-3.878;2023-04-30T02:38:53;1.30;;;1.07;;
7905;SDS011;13291;40.472;-3.878;2023-04-30T02:41:20;2.73;;;1.40;;
7905;SDS011;13291;40.472;-3.878;2023-04-30T02:43:47;1.60;;;0.90;;
7905;SDS011;13291;40.472;-3.878;2023-04-30T02:46:14;2.37;;;1.13;;
7905;SDS011;13291;40.472;-3.878;2023-04-30T02:48:41;1.63;;;1.33;;
7905;SDS011;13291;40.472;-3.878;2023-04-30T02:51:09;1.03;;;0.90;;
7905;SDS011;13291;40.472;-3.878;2023-04-30T02:53:36;4.10;;;1.10;;
7905;SDS011;13291;40.472;-3.878;2023-04-30T02:56:03;1.80;;;0.90;;
7905;SDS011;13291;40.472;-3.878;2023-04-30T02:58:31;2.30;;;1.30;;
7905;SDS011;13291;40.472;-3.878;2023-04-30T03:00:58;2.50;;;1.50;;
7905;SDS011;13291;40.472;-3.878;2023-04-30T03:03:24;2.80;;;1.30;;
7905;SDS011;13291;40.472;-3.878;2023-04-30T03:05:51;1.13;;;1.03;;
7905;SDS011;13291;40.472;-3.878;2023-04-30T03:08:22;3.03;;;1.30;;
7905;SDS011;13291;40.472;-3.878;2023-04-30T03:10:48;1.87;;;1.17;;
7905;SDS011;13291;40.472;-3.878;2023-04-30T03:13:16;1.50;;;1.30;;
7905;SDS011;13291;40.472;-3.878;2023-04-30T03:15:43;2.10;;;1.60;;
7905;SDS011;13291;40.472;-3.878;2023-04-30T03:18:10;2.80;;;1.70;;
7905;SDS011;13291;40.472;-3.878;2023-04-30T03:20:37;3.73;;;1.67;;
7905;SDS011;13291;40.472;-3.878;2023-04-30T03:23:04;1.63;;;1.43;;
7905;SDS011;13291;40.472;-3.878;2023-04-30T03:25:32;2.30;;;1.60;;
7905;SDS011;13291;40.472;-3.878;2023-04-30T03:27:59;4.00;;;1.57;;
7905;SDS011;13291;40.472;-3.878;2023-04-30T03:30:27;2.43;;;1.40;;
7905;SDS011;13291;40.472;-3.878;2023-04-30T03:32:53;2.90;;;1.60;;
7905;SDS011;13291;40.472;-3.878;2023-04-30T03:35:20;2.90;;;1.80;;
7905;SDS011;13291;40.472;-3.878;2023-04-30T03:37:47;2.03;;;1.50;;
7905;SDS011;13291;40.472;-3.878;2023-04-30T03:40:14;2.60;;;1.63;;
7905;SDS011;13291;40.472;-3.878;2023-04-30T03:42:42;2.27;;;1.47;;
7905;SDS011;13291;40.472;-3.878;2023-04-30T03:45:10;4.33;;;1.47;;
7905;SDS011;13291;40.472;-3.878;2023-04-30T03:47:37;2.83;;;1.60;;
7905;SDS011;13291;40.472;-3.878;2023-04-30T03:50:04;2.23;;;1.30;;
7905;SDS011;13291;40.472;-3.878;2023-04-30T03:52:31;3.17;;;1.73;;
7905;SDS011;13291;40.472;-3.878;2023-04-30T03:54:59;2.83;;;1.60;;
7905;SDS011;13291;40.472;-3.878;2023-04-30T03:57:25;3.47;;;1.90;;
7905;SDS011;13291;40.472;-3.878;2023-04-30T03:59:54;2.90;;;1.70;;
7905;SDS011;13291;40.472;-3.878;2023-04-30T04:02:21;2.10;;;1.70;;
7905;SDS011;13291;40.472;-3.878;2023-04-30T04:04:48;1.67;;;1.33;;
7905;SDS011;13291;40.472;-3.878;2023-04-30T04:07:16;2.50;;;1.60;;
7905;SDS011;13291;40.472;-3.878;2023-04-30T04:09:43;4.03;;;1.87;;
7905;SDS011;13291;40.472;-3.878;2023-04-30T04:12:10;2.73;;;1.80;;
7905;SDS011;13291;40.472;-3.878;2023-04-30T04:14:37;3.93;;;1.33;;
7905;SDS011;13291;40.472;-3.878;2023-04-30T04:17:05;4.20;;;1.60;;
7905;SDS011;13291;40.472;-3.878;2023-04-30T04:19:32;3.00;;;1.40;;
7905;SDS011;13291;40.472;-3.878;2023-04-30T04:21:59;2.17;;;1.70;;
7905;SDS011;13291;40.472;-3.878;2023-04-30T04:24:26;2.60;;;1.50;;
7905;SDS011;13291;40.472;-3.878;2023-04-30T04:26:52;1.70;;;1.60;;
7905;SDS011;13291;40.472;-3.878;2023-04-30T04:29:20;1.73;;;1.47;;
7905;SDS011;13291;40.472;-3.878;2023-04-30T04:31:47;2.10;;;1.47;;
7905;SDS011;13291;40.472;-3.878;2023-04-30T04:34:16;2.60;;;1.70;;
7905;SDS011;13291;40.472;-3.878;2023-04-30T04:36:44;4.03;;;1.77;;
7905;SDS011;13291;40.472;-3.878;2023-04-30T04:39:11;3.20;;;1.80;;
7905;SDS011;13291;40.472;-3.878;2023-04-30T04:41:37;2.00;;;1.40;;
7905;SDS011;13291;40.472;-3.878;2023-04-30T04:44:05;1.60;;;1.33;;
7905;SDS011;13291;40.472;-3.878;2023-04-30T04:46:33;2.37;;;1.40;;
7905;SDS011;13291;40.472;-3.878;2023-04-30T04:49:02;1.90;;;1.60;;
7905;SDS011;13291;40.472;-3.878;2023-04-30T04:51:31;4.40;;;1.90;;
7905;SDS011;13291;40.472;-3.878;2023-04-30T04:53:58;2.00;;;1.60;;
7905;SDS011;13291;40.472;-3.878;2023-04-30T04:56:25;3.20;;;1.97;;
7905;SDS011;13291;40.472;-3.878;2023-04-30T04:58:52;1.93;;;1.70;;
7905;SDS011;13291;40.472;-3.878;2023-04-30T05:01:19;2.10;;;1.90;;
7905;SDS011;13291;40.472;-3.878;2023-04-30T05:03:45;3.43;;;1.87;;
7905;SDS011;13291;40.472;-3.878;2023-04-30T05:06:13;2.47;;;2.00;;
7905;SDS011;13291;40.472;-3.878;2023-04-30T05:08:41;4.07;;;2.13;;
7905;SDS011;13291;40.472;-3.878;2023-04-30T05:11:08;3.50;;;2.50;;
7905;SDS011;13291;40.472;-3.878;2023-04-30T05:13:35;2.90;;;1.97;;
7905;SDS011;13291;40.472;-3.878;2023-04-30T05:16:02;2.80;;;2.03;;
7905;SDS011;13291;40.472;-3.878;2023-04-30T05:18:29;3.70;;;2.13;;
7905;SDS011;13291;40.472;-3.878;2023-04-30T05:20:58;3.60;;;2.03;;
7905;SDS011;13291;40.472;-3.878;2023-04-30T05:23:25;2.50;;;2.30;;
7905;SDS011;13291;40.472;-3.878;2023-04-30T05:25:54;5.40;;;1.90;;
7905;SDS011;13291;40.472;-3.878;2023-04-30T05:28:21;2.90;;;2.00;;
7905;SDS011;13291;40.472;-3.878;2023-04-30T05:30:48;3.30;;;2.60;;
7905;SDS011;13291;40.472;-3.878;2023-04-30T05:33:15;7.30;;;2.50;;
7905;SDS011;13291;40.472;-3.878;2023-04-30T05:35:42;2.53;;;2.33;;
7905;SDS011;13291;40.472;-3.878;2023-04-30T05:38:09;2.33;;;2.13;;
7905;SDS011;13291;40.472;-3.878;2023-04-30T05:40:35;2.43;;;2.23;;
7905;SDS011;13291;40.472;-3.878;2023-04-30T05:43:04;2.40;;;2.20;;
7905;SDS011;13291;40.472;-3.878;2023-04-30T05:45:32;2.33;;;2.00;;
7905;SDS011;13291;40.472;-3.878;2023-04-30T05:47:59;5.03;;;3.00;;
7905;SDS011;13291;40.472;-3.878;2023-04-30T05:50:26;4.07;;;2.60;;
7905;SDS011;13291;40.472;-3.878;2023-04-30T05:52:52;2.83;;;2.33;;
7905;SDS011;13291;40.472;-3.878;2023-04-30T05:55:19;4.00;;;2.80;;
7905;SDS011;13291;40.472;-3.878;2023-04-30T05:57:46;3.60;;;2.73;;
7905;SDS011;13291;40.472;-3.878;2023-04-30T06:00:15;3.50;;;2.70;;
7905;SDS011;13291;40.472;-3.878;2023-04-30T06:02:42;2.40;;;2.10;;
7905;SDS011;13291;40.472;-3.878;2023-04-30T06:05:09;3.67;;;3.17;;
7905;SDS011;13291;40.472;-3.878;2023-04-30T06:07:36;3.60;;;2.33;;
7905;SDS011;13291;40.472;-3.878;2023-04-30T06:10:03;2.83;;;2.63;;
7905;SDS011;13291;40.472;-3.878;2023-04-30T06:12:31;3.30;;;2.40;;
7905;SDS011;13291;40.472;-3.878;2023-04-30T06:14:58;3.10;;;2.37;;
7905;SDS011;13291;40.472;-3.878;2023-04-30T06:17:26;4.30;;;2.80;;
7905;SDS011;13291;40.472;-3.878;2023-04-30T06:19:53;4.73;;;2.87;;
7905;SDS011;13291;40.472;-3.878;2023-04-30T06:22:20;6.60;;;2.73;;
7905;SDS011;13291;40.472;-3.878;2023-04-30T06:24:47;2.90;;;2.40;;
7905;SDS011;13291;40.472;-3.878;2023-04-30T06:27:13;4.20;;;2.80;;
7905;SDS011;13291;40.472;-3.878;2023-04-30T06:29:40;3.03;;;2.60;;
7905;SDS011;13291;40.472;-3.878;2023-04-30T06:32:07;3.00;;;2.70;;
7905;SDS011;13291;40.472;-3.878;2023-04-30T06:34:36;3.77;;;2.63;;
7905;SDS011;13291;40.472;-3.878;2023-04-30T06:37:03;3.93;;;3.30;;
7905;SDS011;13291;40.472;-3.878;2023-04-30T06:39:30;4.33;;;3.00;;
7905;SDS011;13291;40.472;-3.878;2023-04-30T06:41:57;5.40;;;3.30;;
7905;SDS011;13291;40.472;-3.878;2023-04-30T06:44:24;3.10;;;2.67;;
7905;SDS011;13291;40.472;-3.878;2023-04-30T06:46:51;3.13;;;2.83;;
7905;SDS011;13291;40.472;-3.878;2023-04-30T06:49:18;4.07;;;3.00;;
7905;SDS011;13291;40.472;-3.878;2023-04-30T06:51:46;3.50;;;2.67;;
7905;SDS011;13291;40.472;-3.878;2023-04-30T06:54:13;3.53;;;2.63;;
7905;SDS011;13291;40.472;-3.878;2023-04-30T06:56:40;3.43;;;3.03;;
7905;SDS011;13291;40.472;-3.878;2023-04-30T06:59:08;3.50;;;3.03;;
7905;SDS011;13291;40.472;-3.878;2023-04-30T07:01:34;2.93;;;2.50;;
7905;SDS011;13291;40.472;-3.878;2023-04-30T07:04:01;5.60;;;3.00;;
7905;SDS011;13291;40.472;-3.878;2023-04-30T07:06:28;3.87;;;3.30;;
7905;SDS011;13291;40.472;-3.878;2023-04-30T07:08:57;4.43;;;2.90;;
7905;SDS011;13291;40.472;-3.878;2023-04-30T07:11:24;3.87;;;2.70;;
7905;SDS011;13291;40.472;-3.878;2023-04-30T07:13:50;2.80;;;2.50;;
7905;SDS011;13291;40.472;-3.878;2023-04-30T07:16:17;3.33;;;2.70;;
7905;SDS011;13291;40.472;-3.878;2023-04-30T07:18:44;3.53;;;2.70;;
7905;SDS011;13291;40.472;-3.878;2023-04-30T07:21:13;3.00;;;2.70;;
7905;SDS011;13291;40.472;-3.878;2023-04-30T07:23:39;2.60;;;2.27;;
7905;SDS011;13291;40.472;-3.878;2023-04-30T07:26:08;3.43;;;2.50;;
7905;SDS011;13291;40.472;-3.878;2023-04-30T07:28:35;3.07;;;2.57;;
7905;SDS011;13291;40.472;-3.878;2023-04-30T07:31:01;3.20;;;2.60;;
7905;SDS011;13291;40.472;-3.878;2023-04-30T07:33:28;2.90;;;2.30;;
7905;SDS011;13291;40.472;-3.878;2023-04-30T07:35:55;3.67;;;2.50;;
7905;SDS011;13291;40.472;-3.878;2023-04-30T07:38:23;2.27;;;2.07;;
7905;SDS011;13291;40.472;-3.878;2023-04-30T07:40:50;2.93;;;2.60;;
7905;SDS011;13291;40.472;-3.878;2023-04-30T07:43:18;2.60;;;2.30;;
7905;SDS011;13291;40.472;-3.878;2023-04-30T07:45:45;2.40;;;2.10;;
7905;SDS011;13291;40.472;-3.878;2023-04-30T07:48:13;2.40;;;2.20;;
7905;SDS011;13291;40.472;-3.878;2023-04-30T07:50:40;3.07;;;2.37;;
7905;SDS011;13291;40.472;-3.878;2023-04-30T07:53:07;4.80;;;2.70;;
7905;SDS011;13291;40.472;-3.878;2023-04-30T07:55:34;6.70;;;2.40;;
7905;SDS011;13291;40.472;-3.878;2023-04-30T07:58:01;3.40;;;2.33;;
7905;SDS011;13291;40.472;-3.878;2023-04-30T08:00:30;2.63;;;2.20;;
7905;SDS011;13291;40.472;-3.878;2023-04-30T08:02:57;2.77;;;2.27;;
7905;SDS011;13291;40.472;-3.878;2023-04-30T08:05:24;2.57;;;2.20;;
7905;SDS011;13291;40.472;-3.878;2023-04-30T08:07:51;2.40;;;2.20;;
7905;SDS011;13291;40.472;-3.878;2023-04-30T08:10:18;2.07;;;1.87;;
7905;SDS011;13291;40.472;-3.878;2023-04-30T08:12:45;2.80;;;2.47;;
7905;SDS011;13291;40.472;-3.878;2023-04-30T08:15:12;3.57;;;2.30;;
7905;SDS011;13291;40.472;-3.878;2023-04-30T08:17:40;2.50;;;2.17;;
7905;SDS011;13291;40.472;-3.878;2023-04-30T08:20:08;3.87;;;2.23;;
7905;SDS011;13291;40.472;-3.878;2023-04-30T08:22:35;2.23;;;2.03;;
7905;SDS011;13291;40.472;-3.878;2023-04-30T08:25:02;3.50;;;2.17;;
7905;SDS011;13291;40.472;-3.878;2023-04-30T08:27:29;3.00;;;2.13;;
7905;SDS011;13291;40.472;-3.878;2023-04-30T08:29:56;2.70;;;2.13;;
7905;SDS011;13291;40.472;-3.878;2023-04-30T08:32:23;2.63;;;1.80;;
7905;SDS011;13291;40.472;-3.878;2023-04-30T08:34:52;2.63;;;1.70;;
7905;SDS011;13291;40.472;-3.878;2023-04-30T08:37:19;5.87;;;1.93;;
7905;SDS011;13291;40.472;-3.878;2023-04-30T08:39:46;2.10;;;1.90;;
7905;SDS011;13291;40.472;-3.878;2023-04-30T08:42:13;2.20;;;1.90;;
7905;SDS011;13291;40.472;-3.878;2023-04-30T08:44:42;2.00;;;1.80;;
7905;SDS011;13291;40.472;-3.878;2023-04-30T08:47:10;3.20;;;2.13;;
7905;SDS011;13291;40.472;-3.878;2023-04-30T08:49:38;2.53;;;1.90;;
7905;SDS011;13291;40.472;-3.878;2023-04-30T08:52:07;2.17;;;1.97;;
7905;SDS011;13291;40.472;-3.878;2023-04-30T08:54:34;2.10;;;1.90;;
7905;SDS011;13291;40.472;-3.878;2023-04-30T08:57:01;2.10;;;1.90;;
7905;SDS011;13291;40.472;-3.878;2023-04-30T08:59:29;1.77;;;1.67;;
7905;SDS011;13291;40.472;-3.878;2023-04-30T09:01:56;3.10;;;2.10;;
7905;SDS011;13291;40.472;-3.878;2023-04-30T09:04:23;2.33;;;1.43;;
7905;SDS011;13291;40.472;-3.878;2023-04-30T09:06:51;2.33;;;1.63;;
7905;SDS011;13291;40.472;-3.878;2023-04-30T09:09:26;2.13;;;1.73;;
7905;SDS011;13291;40.472;-3.878;2023-04-30T09:12:00;1.73;;;1.63;;
7905;SDS011;13291;40.472;-3.878;2023-04-30T09:14:37;3.30;;;2.00;;
7905;SDS011;13291;40.472;-3.878;2023-04-30T09:17:05;2.23;;;1.67;;
7905;SDS011;13291;40.472;-3.878;2023-04-30T09:19:34;3.03;;;1.93;;
7905;SDS011;13291;40.472;-3.878;2023-04-30T09:24:47;2.93;;;1.67;;
7905;SDS011;13291;40.472;-3.878;2023-04-30T09:27:16;2.30;;;2.10;;
7905;SDS011;13291;40.472;-3.878;2023-04-30T09:29:43;2.03;;;1.57;;
7905;SDS011;13291;40.472;-3.878;2023-04-30T09:32:11;1.93;;;1.50;;
7905;SDS011;13291;40.472;-3.878;2023-04-30T09:34:38;2.23;;;1.80;;
7905;SDS011;13291;40.472;-3.878;2023-04-30T09:37:07;2.73;;;1.60;;
7905;SDS011;13291;40.472;-3.878;2023-04-30T09:39:45;2.27;;;1.80;;
7905;SDS011;13291;40.472;-3.878;2023-04-30T09:42:15;1.83;;;1.73;;
7905;SDS011;13291;40.472;-3.878;2023-04-30T09:44:42;2.60;;;1.20;;
7905;SDS011;13291;40.472;-3.878;2023-04-30T09:47:13;1.57;;;1.47;;
7905;SDS011;13291;40.472;-3.878;2023-04-30T09:49:41;1.70;;;1.60;;
7905;SDS011;13291;40.472;-3.878;2023-04-30T09:52:09;2.00;;;1.37;;
7905;SDS011;13291;40.472;-3.878;2023-04-30T09:54:37;2.13;;;1.73;;
7905;SDS011;13291;40.472;-3.878;2023-04-30T09:57:05;1.97;;;1.67;;
7905;SDS011;13291;40.472;-3.878;2023-04-30T09:59:36;1.87;;;1.67;;
7905;SDS011;13291;40.472;-3.878;2023-04-30T10:02:07;1.80;;;1.70;;
7905;SDS011;13291;40.472;-3.878;2023-04-30T10:04:35;2.57;;;1.70;;
7905;SDS011;13291;40.472;-3.878;2023-04-30T10:07:04;1.50;;;1.40;;
7905;SDS011;13291;40.472;-3.878;2023-04-30T10:09:36;2.03;;;1.80;;
7905;SDS011;13291;40.472;-3.878;2023-04-30T10:12:12;2.43;;;1.67;;
7905;SDS011;13291;40.472;-3.878;2023-04-30T10:14:41;3.53;;;1.80;;
7905;SDS011;13291;40.472;-3.878;2023-04-30T10:17:20;1.87;;;1.57;;
7905;SDS011;13291;40.472;-3.878;2023-04-30T10:19:53;2.10;;;1.30;;
7905;SDS011;13291;40.472;-3.878;2023-04-30T10:22:23;4.03;;;1.40;;
7905;SDS011;13291;40.472;-3.878;2023-04-30T10:24:52;1.87;;;1.67;;
7905;SDS011;13291;40.472;-3.878;2023-04-30T10:27:20;2.27;;;1.63;;
7905;SDS011;13291;40.472;-3.878;2023-04-30T10:29:47;2.93;;;1.60;;
7905;SDS011;13291;40.472;-3.878;2023-04-30T10:32:16;1.60;;;1.50;;
7905;SDS011;13291;40.472;-3.878;2023-04-30T10:34:47;1.60;;;1.50;;
7905;SDS011;13291;40.472;-3.878;2023-04-30T10:37:20;3.57;;;1.60;;
7905;SDS011;13291;40.472;-3.878;2023-04-30T10:39:53;3.10;;;1.50;;
7905;SDS011;13291;40.472;-3.878;2023-04-30T10:42:22;3.63;;;1.73;;
7905;SDS011;13291;40.472;-3.878;2023-04-30T10:44:49;2.20;;;1.47;;
7905;SDS011;13291;40.472;-3.878;2023-04-30T10:47:17;1.70;;;1.60;;
7905;SDS011;13291;40.472;-3.878;2023-04-30T10:49:44;4.17;;;1.60;;
7905;SDS011;13291;40.472;-3.878;2023-04-30T10:52:12;1.40;;;1.30;;
7905;SDS011;13291;40.472;-3.878;2023-04-30T10:54:39;1.60;;;1.50;;
7905;SDS011;13291;40.472;-3.878;2023-04-30T10:57:15;3.27;;;1.70;;
7905;SDS011;13291;40.472;-3.878;2023-04-30T10:59:50;1.90;;;1.27;;
7905;SDS011;13291;40.472;-3.878;2023-04-30T11:02:19;2.20;;;1.70;;
7905;SDS011;13291;40.472;-3.878;2023-04-30T11:07:35;3.10;;;1.33;;
7905;SDS011;13291;40.472;-3.878;2023-04-30T11:10:06;2.37;;;1.60;;
7905;SDS011;13291;40.472;-3.878;2023-04-30T11:12:33;2.23;;;1.40;;
7905;SDS011;13291;40.472;-3.878;2023-04-30T11:15:11;2.80;;;1.50;;
7905;SDS011;13291;40.472;-3.878;2023-04-30T11:17:39;1.63;;;1.30;;
7905;SDS011;13291;40.472;-3.878;2023-04-30T11:20:09;2.40;;;1.60;;
7905;SDS011;13291;40.472;-3.878;2023-04-30T11:22:38;1.87;;;1.30;;
7905;SDS011;13291;40.472;-3.878;2023-04-30T11:25:05;2.87;;;2.00;;
7905;SDS011;13291;40.472;-3.878;2023-04-30T11:27:36;1.40;;;1.30;;
7905;SDS011;13291;40.472;-3.878;2023-04-30T11:30:10;1.23;;;1.13;;
7905;SDS011;13291;40.472;-3.878;2023-04-30T11:32:39;1.33;;;1.23;;
7905;SDS011;13291;40.472;-3.878;2023-04-30T11:35:07;1.93;;;1.07;;
7905;SDS011;13291;40.472;-3.878;2023-04-30T11:37:35;1.53;;;1.43;;
7905;SDS011;13291;40.472;-3.878;2023-04-30T11:40:03;2.13;;;1.93;;
7905;SDS011;13291;40.472;-3.878;2023-04-30T11:42:32;2.07;;;1.57;;
7905;SDS011;13291;40.472;-3.878;2023-04-30T11:45:06;2.10;;;1.80;;
7905;SDS011;13291;40.472;-3.878;2023-04-30T11:47:39;2.23;;;1.70;;
7905;SDS011;13291;40.472;-3.878;2023-04-30T11:50:07;1.53;;;1.43;;
7905;SDS011;13291;40.472;-3.878;2023-04-30T11:52:35;2.97;;;2.00;;
7905;SDS011;13291;40.472;-3.878;2023-04-30T11:55:04;1.70;;;1.60;;
7905;SDS011;13291;40.472;-3.878;2023-04-30T11:57:38;1.63;;;1.53;;
7905;SDS011;13291;40.472;-3.878;2023-04-30T12:00:07;3.17;;;2.23;;
7905;SDS011;13291;40.472;-3.878;2023-04-30T12:02:39;2.33;;;1.50;;
7905;SDS011;13291;40.472;-3.878;2023-04-30T12:05:14;2.00;;;1.80;;
7905;SDS011;13291;40.472;-3.878;2023-04-30T12:07:45;2.90;;;2.60;;
7905;SDS011;13291;40.472;-3.878;2023-04-30T12:10:14;6.57;;;3.30;;
7905;SDS011;13291;40.472;-3.878;2023-04-30T12:12:41;7.80;;;5.93;;
7905;SDS011;13291;40.472;-3.878;2023-04-30T12:15:12;3.00;;;2.30;;
7905;SDS011;13291;40.472;-3.878;2023-04-30T12:17:43;1.90;;;1.30;;
7905;SDS011;13291;40.472;-3.878;2023-04-30T12:20:10;1.50;;;1.03;;
7905;SDS011;13291;40.472;-3.878;2023-04-30T12:22:38;1.30;;;1.20;;
7905;SDS011;13291;40.472;-3.878;2023-04-30T12:25:07;1.77;;;1.30;;
7905;SDS011;13291;40.472;-3.878;2023-04-30T12:27:38;1.60;;;1.37;;
7905;SDS011;13291;40.472;-3.878;2023-04-30T12:30:06;1.80;;;1.40;;
7905;SDS011;13291;40.472;-3.878;2023-04-30T12:32:37;1.60;;;1.37;;
7905;SDS011;13291;40.472;-3.878;2023-04-30T12:35:07;3.50;;;1.50;;
7905;SDS011;13291;40.472;-3.878;2023-04-30T12:37:40;2.00;;;1.63;;
7905;SDS011;13291;40.472;-3.878;2023-04-30T12:40:08;1.80;;;1.30;;
7905;SDS011;13291;40.472;-3.878;2023-04-30T12:42:36;2.10;;;1.53;;
7905;SDS011;13291;40.472;-3.878;2023-04-30T12:45:04;1.90;;;1.27;;
7905;SDS011;13291;40.472;-3.878;2023-04-30T12:47:31;1.70;;;1.60;;
7905;SDS011;13291;40.472;-3.878;2023-04-30T12:49:58;1.20;;;1.10;;
7905;SDS011;13291;40.472;-3.878;2023-04-30T12:52:27;2.03;;;1.70;;
7905;SDS011;13291;40.472;-3.878;2023-04-30T12:54:54;1.20;;;1.10;;
7905;SDS011;13291;40.472;-3.878;2023-04-30T12:57:21;1.80;;;1.43;;
7905;SDS011;13291;40.472;-3.878;2023-04-30T12:59:57;1.70;;;1.53;;
7905;SDS011;13291;40.472;-3.878;2023-04-30T13:02:26;1.83;;;1.50;;
7905;SDS011;13291;40.472;-3.878;2023-04-30T13:04:56;1.90;;;1.60;;
7905;SDS011;13291;40.472;-3.878;2023-04-30T13:07:23;1.40;;;1.20;;
7905;SDS011;13291;40.472;-3.878;2023-04-30T13:09:51;1.97;;;1.30;;
7905;SDS011;13291;40.472;-3.878;2023-04-30T13:12:18;1.33;;;1.20;;
7905;SDS011;13291;40.472;-3.878;2023-04-30T13:14:45;6.37;;;5.77;;
7905;SDS011;13291;40.472;-3.878;2023-04-30T13:17:12;4.40;;;3.10;;
7905;SDS011;13291;40.472;-3.878;2023-04-30T13:19:39;2.30;;;2.00;;
7905;SDS011;13291;40.472;-3.878;2023-04-30T13:22:06;1.80;;;1.60;;
7905;SDS011;13291;40.472;-3.878;2023-04-30T13:24:33;1.83;;;1.03;;
7905;SDS011;13291;40.472;-3.878;2023-04-30T13:27:02;2.23;;;1.97;;
7905;SDS011;13291;40.472;-3.878;2023-04-30T13:29:29;2.50;;;1.73;;
7905;SDS011;13291;40.472;-3.878;2023-04-30T13:31:56;1.80;;;1.70;;
7905;SDS011;13291;40.472;-3.878;2023-04-30T13:34:23;2.30;;;1.50;;
7905;SDS011;13291;40.472;-3.878;2023-04-30T13:36:50;3.30;;;1.80;;
7905;SDS011;13291;40.472;-3.878;2023-04-30T13:39:17;4.00;;;1.83;;
7905;SDS011;13291;40.472;-3.878;2023-04-30T13:41:46;8.07;;;6.83;;
7905;SDS011;13291;40.472;-3.878;2023-04-30T13:44:14;3.50;;;3.20;;
7905;SDS011;13291;40.472;-3.878;2023-04-30T13:46:42;2.37;;;1.97;;
7905;SDS011;13291;40.472;-3.878;2023-04-30T13:49:09;4.30;;;3.13;;
7905;SDS011;13291;40.472;-3.878;2023-04-30T13:51:35;3.07;;;1.60;;
7905;SDS011;13291;40.472;-3.878;2023-04-30T13:54:02;1.63;;;1.40;;
7905;SDS011;13291;40.472;-3.878;2023-04-30T13:56:29;1.33;;;1.23;;
7905;SDS011;13291;40.472;-3.878;2023-04-30T13:58:56;2.00;;;1.40;;
7905;SDS011;13291;40.472;-3.878;2023-04-30T14:01:24;1.23;;;1.13;;
7905;SDS011;13291;40.472;-3.878;2023-04-30T14:03:51;2.17;;;1.40;;
7905;SDS011;13291;40.472;-3.878;2023-04-30T14:06:18;1.40;;;1.30;;
7905;SDS011;13291;40.472;-3.878;2023-04-30T14:08:45;2.60;;;1.30;;
7905;SDS011;13291;40.472;-3.878;2023-04-30T14:11:12;1.20;;;1.10;;
7905;SDS011;13291;40.472;-3.878;2023-04-30T14:13:39;1.80;;;1.20;;
7905;SDS011;13291;40.472;-3.878;2023-04-30T14:16:06;1.53;;;1.20;;
7905;SDS011;13291;40.472;-3.878;2023-04-30T14:18:35;1.70;;;1.30;;
7905;SDS011;13291;40.472;-3.878;2023-04-30T14:21:02;1.30;;;1.20;;
7905;SDS011;13291;40.472;-3.878;2023-04-30T14:23:29;1.83;;;1.00;;
7905;SDS011;13291;40.472;-3.878;2023-04-30T14:25:56;1.93;;;1.10;;
7905;SDS011;13291;40.472;-3.878;2023-04-30T14:28:22;1.20;;;1.03;;
7905;SDS011;13291;40.472;-3.878;2023-04-30T14:30:49;1.77;;;1.00;;
7905;SDS011;13291;40.472;-3.878;2023-04-30T14:33:16;1.40;;;0.90;;
7905;SDS011;13291;40.472;-3.878;2023-04-30T14:35:45;2.03;;;1.10;;
7905;SDS011;13291;40.472;-3.878;2023-04-30T14:38:12;1.73;;;0.90;;
7905;SDS011;13291;40.472;-3.878;2023-04-30T14:40:39;3.03;;;1.13;;
7905;SDS011;13291;40.472;-3.878;2023-04-30T14:43:05;1.23;;;0.83;;
7905;SDS011;13291;40.472;-3.878;2023-04-30T14:45:32;1.60;;;0.90;;
7905;SDS011;13291;40.472;-3.878;2023-04-30T14:47:59;0.87;;;0.70;;
7905;SDS011;13291;40.472;-3.878;2023-04-30T14:50:26;2.37;;;0.70;;
7905;SDS011;13291;40.472;-3.878;2023-04-30T14:52:55;1.57;;;0.70;;
7905;SDS011;13291;40.472;-3.878;2023-04-30T14:55:22;1.43;;;0.90;;
7905;SDS011;13291;40.472;-3.878;2023-04-30T14:57:49;0.80;;;0.70;;
7905;SDS011;13291;40.472;-3.878;2023-04-30T15:00:16;1.00;;;0.80;;